Hlavní strana
METAR-TAF:

METAR-TAF

Letiště :

Panama Pacifico, Panama

zeměpisná šířka: 08-55N, zeměpisná délka: 079-36W, výška: 16 m

Aktuální stav počasí

Zpráva byla vytvořena před 1 hodinou a 14 minutami, v 01:00 UTC
Severní vítr 5 kt
Teplota 26°C
Vlhkost vzduchu 79%
Tlak 1011 hPa
Viditelnost 10 km a více
Skoro jasno ve výšce 2000 ft

METAR: MPPA 260100Z 01005KT 9999 FEW020 26/22 Q1011

Čas: 21:14 (02:14 UTC)

Předpověď počasí

Zpráva byla vytvořena před 3 hodinami a 14 minutami, v 23:00 UTC
Předpověď platná od 26 v 00 UTC do 27 v 06 UTC
Severní vítr 8 kt
Viditelnost 10 km a více
Skoro jasno ve výšce 2000 ft
Změna
od 26 v 08 UTC do 26 v 12 UTC
Viditelnost 10 km a více
Žádná oblačnost pod 1500 m, nevyskytují se cumulonimby.
Dočasný
od 26 v 14 UTC do 26 v 16 UTC
Severoseverovýchodní vítr 15 kt

TAF: MPPA 252300Z 2600/2706 01008KT 9999 FEW020 BECMG 2608/2612 CAVOK TEMPO 2614/2616 03015KT

Stav a předpovědi počasí z více než 4 000 letišť (zprávy METAR a TAF).

Červené a žluté tečky na mapě představují dostupné meteorologické stanice.

Když kurzor umístíte na tečku, zobrazí se název stanice.

Pak kliknutím zobrazíte stav a předpověď počasí.

Chcete-li změnit mapu, kliknutím na zelené tlačítko se znaménkem +mapu přiblížíte, kliknutím na zelené tlačítko se znaménkem – mapu oddálíte a kliknutím na zelené šipky přejdete na sousední mapy.


METAR-TAF: